Time;durP1;ratioP1;P1;durP2;ratioP2;P2;SDS_P1;SDS_P2;PMS_P1;PMS_P2;Temp;Humidity;BMP_temperature;BMP_pressure;BME280_temperature;BME280_humidity;BME280_pressure;Samples;Min_cycle;Max_cycle;Signal;HPM_P1;HPM_P2
2023/06/15 00:01:22;;;;;;;5.22;3.78;;;19.50;99.90;;;;;;5093267;28;20700;-63
2023/06/15 00:03:48;;;;;;;4.75;3.83;;;19.50;99.90;;;;;;5075350;28;20218;-64
2023/06/15 00:06:13;;;;;;;4.18;3.78;;;19.30;99.90;;;;;;5093227;28;20173;-64
2023/06/15 00:08:40;;;;;;;9.95;3.90;;;19.30;1.00;;;;;;5092896;28;20176;-65
2023/06/15 00:11:05;;;;;;;6.25;3.50;;;19.30;1.00;;;;;;5093445;28;20251;-64
2023/06/15 00:13:31;;;;;;;8.35;3.97;;;19.30;1.00;;;;;;5093365;28;20291;-65
2023/06/15 00:15:57;;;;;;;8.23;3.95;;;19.20;1.00;;;;;;5093252;28;20517;-63
2023/06/15 00:18:22;;;;;;;12.35;4.30;;;19.20;1.00;;;;;;5093424;28;20172;-64
2023/06/15 00:20:48;;;;;;;10.07;4.22;;;19.20;99.90;;;;;;5093016;28;20516;-64
2023/06/15 00:23:17;;;;;;;7.75;4.28;;;19.20;99.90;;;;;;5092901;28;20195;-64
2023/06/15 00:25:42;;;;;;;7.35;3.97;;;19.10;1.00;;;;;;5093065;28;20256;-64
2023/06/15 00:28:08;;;;;;;8.43;3.95;;;19.10;1.00;;;;;;5093127;28;20250;-65
2023/06/15 00:30:34;;;;;;;5.53;3.88;;;18.90;1.00;;;;;;5093057;28;20172;-64
2023/06/15 00:32:59;;;;;;;3.80;3.50;;;19.00;1.00;;;;;;5092967;28;20196;-64
2023/06/15 00:35:25;;;;;;;4.30;3.72;;;19.00;1.00;;;;;;5092941;28;20175;-65
2023/06/15 00:37:51;;;;;;;4.75;3.80;;;19.00;1.00;;;;;;5092837;28;20674;-64
2023/06/15 00:40:16;;;;;;;4.70;3.42;;;18.90;1.00;;;;;;5092950;28;20275;-65
2023/06/15 00:42:44;;;;;;;5.72;3.78;;;18.90;1.00;;;;;;5093069;28;20170;-64
2023/06/15 00:45:10;;;;;;;5.80;3.60;;;18.90;1.00;;;;;;5092871;28;20167;-64
2023/06/15 00:47:39;;;;;;;6.30;3.90;;;18.80;1.10;;;;;;5093130;28;20160;-65
2023/06/15 00:50:09;;;;;;;7.63;3.75;;;18.70;1.00;;;;;;5092646;28;20570;-63
2023/06/15 00:52:36;;;;;;;9.25;4.03;;;18.70;99.90;;;;;;5092530;28;20670;-63
2023/06/15 00:55:03;;;;;;;6.97;3.95;;;18.60;1.00;;;;;;5092819;28;20251;-64
2023/06/15 00:57:30;;;;;;;13.53;4.57;;;18.50;14.90;;;;;;5092760;28;20237;-64
2023/06/15 00:59:56;;;;;;;11.07;4.50;;;18.40;99.90;;;;;;5096549;28;20171;-64
2023/06/15 01:02:24;;;;;;;11.50;4.40;;;18.30;79.60;;;;;;5096531;28;20532;-64
2023/06/15 01:04:50;;;;;;;18.65;5.30;;;18.20;1.00;;;;;;5096590;28;20575;-63
2023/06/15 01:07:20;;;;;;;20.05;6.28;;;18.20;99.90;;;;;;5096604;28;20191;-64
2023/06/15 01:09:47;;;;;;;22.77;6.05;;;18.20;99.90;;;;;;5096312;28;20172;-63
2023/06/15 01:12:14;;;;;;;20.37;4.90;;;18.20;1.00;;;;;;5096447;28;20195;-64
2023/06/15 01:14:40;;;;;;;13.00;4.80;;;18.20;1.00;;;;;;5096516;28;20179;-64
2023/06/15 01:17:10;;;;;;;12.38;5.03;;;18.10;1.00;;;;;;5095864;28;20172;-63
2023/06/15 01:20:07;;;;;;;13.40;3.93;;;18.10;1.00;;;;;;5095707;28;20180;-63
2023/06/15 01:22:35;;;;;;;6.60;4.10;;;18.10;1.00;;;;;;5096046;28;20164;-63
2023/06/15 01:25:10;;;;;;;6.85;4.13;;;18.10;1.00;;;;;;5095750;28;20164;-65
2023/06/15 01:27:38;;;;;;;8.37;4.40;;;18.00;1.00;;;;;;5095932;28;20193;-63
2023/06/15 01:30:05;;;;;;;7.50;4.53;;;18.00;1.00;;;;;;5095923;28;20658;-64
2023/06/15 01:32:33;;;;;;;7.32;4.85;;;18.00;22.70;;;;;;5096092;28;20231;-63
2023/06/15 01:34:59;;;;;;;7.93;4.20;;;17.90;94.00;;;;;;5095753;28;20259;-63
2023/06/15 01:37:25;;;;;;;9.10;4.30;;;17.90;99.90;;;;;;5095724;28;20294;-64
2023/06/15 01:39:50;;;;;;;4.67;3.97;;;17.90;99.90;;;;;;5095690;28;20224;-64
2023/06/15 01:42:16;;;;;;;9.87;4.00;;;17.90;99.90;;;;;;5095576;28;20298;-64
2023/06/15 01:44:42;;;;;;;7.60;4.60;;;17.80;99.90;;;;;;5095662;28;20646;-64
2023/06/15 01:47:09;;;;;;;5.13;4.00;;;17.80;99.90;;;;;;5095662;28;20634;-64
2023/06/15 01:49:35;;;;;;;5.27;4.00;;;17.70;99.90;;;;;;5095402;28;20164;-63
2023/06/15 01:52:01;;;;;;;4.37;3.97;;;17.70;99.90;;;;;;5095695;28;20165;-63
2023/06/15 01:54:27;;;;;;;4.77;4.17;;;17.70;1.00;;;;;;5095637;28;20168;-64
2023/06/15 01:56:53;;;;;;;7.87;4.83;;;17.60;1.00;;;;;;5095475;28;20680;-63
2023/06/15 01:59:18;;;;;;;7.23;4.50;;;17.60;1.00;;;;;;5095595;28;20504;-63
2023/06/15 02:01:44;;;;;;;5.40;4.23;;;17.60;1.00;;;;;;5077362;28;20183;-63
2023/06/15 02:04:09;;;;;;;4.67;4.27;;;17.60;1.00;;;;;;5095141;28;20556;-63
2023/06/15 02:06:36;;;;;;;9.20;4.60;;;17.60;1.00;;;;;;5095368;28;20687;-63
2023/06/15 02:09:02;;;;;;;4.73;4.13;;;17.50;1.00;;;;;;5095109;28;20164;-64
2023/06/15 02:11:28;;;;;;;4.80;4.30;;;17.50;1.00;;;;;;5094373;28;20168;-63
2023/06/15 02:13:53;;;;;;;7.47;4.03;;;17.40;1.00;;;;;;5095001;28;20203;-63
2023/06/15 02:16:19;;;;;;;6.20;4.37;;;17.40;1.00;;;;;;5095009;28;20178;-63
2023/06/15 02:18:45;;;;;;;5.97;4.20;;;17.40;1.00;;;;;;5094827;28;20195;-62
2023/06/15 02:21:12;;;;;;;7.80;4.23;;;17.40;1.00;;;;;;5095007;28;20248;-63
2023/06/15 02:23:37;;;;;;;5.43;4.90;;;17.40;1.00;;;;;;5095014;28;20653;-63
2023/06/15 02:26:03;;;;;;;6.47;4.70;;;17.50;1.00;;;;;;5094971;28;20164;-63
2023/06/15 02:28:29;;;;;;;6.23;4.40;;;17.50;1.00;;;;;;5095110;28;20255;-64
2023/06/15 02:30:54;;;;;;;8.43;4.70;;;17.50;1.00;;;;;;5094795;28;20182;-63
2023/06/15 02:33:20;;;;;;;8.80;4.57;;;17.40;1.00;;;;;;5094446;28;20212;-64
2023/06/15 02:35:45;;;;;;;6.13;4.60;;;17.40;1.00;;;;;;5094539;28;20215;-65
2023/06/15 02:38:11;;;;;;;4.70;4.30;;;17.40;1.00;;;;;;5095029;28;20563;-64
2023/06/15 02:40:37;;;;;;;5.47;4.60;;;17.50;1.00;;;;;;5094434;28;20188;-64
2023/06/15 02:43:03;;;;;;;6.70;4.07;;;17.40;1.00;;;;;;5094718;28;20557;-64
2023/06/15 02:45:29;;;;;;;7.03;4.13;;;17.30;1.00;;;;;;5094574;28;20167;-64
2023/06/15 02:47:56;;;;;;;5.47;4.70;;;17.30;1.00;;;;;;5094482;28;20168;-63
2023/06/15 02:50:21;;;;;;;6.20;4.70;;;17.20;1.00;;;;;;5094553;28;20191;-63
2023/06/15 02:52:47;;;;;;;6.33;4.43;;;17.20;1.00;;;;;;5094457;28;20203;-64
2023/06/15 02:55:13;;;;;;;9.73;4.70;;;17.10;1.00;;;;;;5094341;28;20168;-63
2023/06/15 02:57:40;;;;;;;8.27;4.23;;;17.10;1.00;;;;;;5094237;28;20637;-64
2023/06/15 03:00:09;;;;;;;9.20;4.93;;;17.10;1.00;;;;;;5076165;28;20172;-63
2023/06/15 03:02:35;;;;;;;11.97;5.13;;;17.10;1.00;;;;;;5093973;28;20179;-64
2023/06/15 03:05:03;;;;;;;7.03;5.00;;;17.10;1.00;;;;;;5094271;28;20164;-64
2023/06/15 03:07:30;;;;;;;14.63;5.50;;;17.10;1.00;;;;;;5094165;28;20646;-64
2023/06/15 03:09:56;;;;;;;6.90;4.90;;;17.10;1.00;;;;;;5094235;28;20228;-64
2023/06/15 03:12:21;;;;;;;10.60;5.10;;;17.00;1.00;;;;;;5094102;28;20650;-65
2023/06/15 03:14:50;;;;;;;7.67;4.70;;;16.90;1.00;;;;;;5093726;28;20187;-63
2023/06/15 03:17:21;;;;;;;7.93;4.90;;;16.90;1.00;;;;;;5093431;28;20563;-64
2023/06/15 03:19:47;;;;;;;5.67;4.90;;;16.90;1.00;;;;;;5093655;28;20175;-64
2023/06/15 03:22:14;;;;;;;6.90;4.90;;;16.80;1.00;;;;;;5093508;28;20168;-64
2023/06/15 03:24:41;;;;;;;5.50;4.93;;;16.80;1.00;;;;;;5093754;28;20692;-64
2023/06/15 03:27:10;;;;;;;5.83;4.57;;;16.80;1.00;;;;;;5093802;28;20187;-64
2023/06/15 03:29:39;;;;;;;7.67;5.13;;;16.80;1.00;;;;;;5093761;28;20275;-64
2023/06/15 03:32:06;;;;;;;7.30;4.77;;;16.80;1.00;;;;;;5093036;28;20168;-63
2023/06/15 03:34:33;;;;;;;11.63;5.17;;;16.80;1.00;;;;;;5093354;28;20183;-62
2023/06/15 03:36:59;;;;;;;9.27;5.10;;;16.80;1.00;;;;;;5093464;28;20231;-65
2023/06/15 03:39:25;;;;;;;10.30;5.10;;;16.80;1.00;;;;;;5093461;28;20524;-66
2023/06/15 03:41:50;;;;;;;7.03;5.30;;;16.80;1.00;;;;;;5093245;28;20180;-65
2023/06/15 03:44:16;;;;;;;10.17;4.93;;;16.80;1.00;;;;;;5075158;28;20555;-64
2023/06/15 03:46:42;;;;;;;9.20;5.40;;;16.90;1.00;;;;;;5092418;28;20686;-63
2023/06/15 03:49:07;;;;;;;7.50;5.50;;;16.90;1.00;;;;;;5092542;28;20171;-63
2023/06/15 03:51:33;;;;;;;9.13;5.30;;;17.00;1.00;;;;;;5092474;28;20175;-65
2023/06/15 03:53:59;;;;;;;5.87;5.10;;;17.20;1.00;;;;;;5092603;28;20219;-65
2023/06/15 03:56:25;;;;;;;6.03;5.43;;;17.40;1.00;;;;;;5092569;28;20164;-65
2023/06/15 03:58:50;;;;;;;6.53;5.13;;;17.60;1.00;;;;;;5092533;28;20168;-65
2023/06/15 04:01:16;;;;;;;6.10;5.10;;;18.10;1.00;;;;;;5092479;28;20251;-65
2023/06/15 04:03:42;;;;;;;10.48;5.20;;;18.60;1.00;;;;;;5092931;28;20167;-65
2023/06/15 04:06:08;;;;;;;10.57;5.20;;;19.00;1.00;;;;;;5092341;28;20163;-65
2023/06/15 04:08:37;;;;;;;6.97;5.28;;;19.40;99.90;;;;;;5092105;28;20229;-65
2023/06/15 04:11:03;;;;;;;10.48;5.95;;;19.70;99.90;;;;;;5091732;28;20211;-66
2023/06/15 04:13:29;;;;;;;8.45;4.95;;;20.00;99.90;;;;;;5091909;28;20674;-65
2023/06/15 04:15:55;;;;;;;6.53;5.22;;;20.30;1.00;;;;;;5092351;28;20270;-65
2023/06/15 04:18:22;;;;;;;5.68;5.10;;;20.60;1.00;;;;;;5092581;28;20172;-65
2023/06/15 04:20:48;;;;;;;6.97;5.32;;;21.00;1.00;;;;;;5091669;28;20251;-66
2023/06/15 04:23:14;;;;;;;8.55;5.25;;;21.60;99.90;;;;;;5091571;28;20282;-65
2023/06/15 04:25:45;;;;;;;7.60;5.47;;;22.00;1.00;;;;;;5092164;28;20166;-65
2023/06/15 04:28:11;;;;;;;9.25;5.55;;;22.80;99.90;;;;;;5092352;28;20172;-66
2023/06/15 04:30:44;;;;;;;7.32;5.45;;;23.20;1.00;;;;;;5091614;28;20171;-65
2023/06/15 04:33:13;;;;;;;9.02;4.97;;;23.60;99.90;;;;;;5092933;28;20268;-66
2023/06/15 04:35:45;;;;;;;7.20;5.28;;;23.80;99.90;;;;;;5096265;28;20218;-65
2023/06/15 04:38:12;;;;;;;10.25;5.75;;;24.00;1.00;;;;;;5095932;28;20171;-65
2023/06/15 04:40:39;;;;;;;7.18;5.13;;;24.40;1.00;;;;;;5096211;28;20266;-65
2023/06/15 04:43:05;;;;;;;7.97;5.30;;;24.90;1.00;;;;;;5095750;28;20179;-66
2023/06/15 04:45:30;;;;;;;8.80;5.20;;;25.40;1.00;;;;;;5095751;28;20160;-65
2023/06/15 04:47:56;;;;;;;6.28;5.28;;;25.60;1.00;;;;;;5096075;28;20171;-64
2023/06/15 04:50:22;;;;;;;5.47;4.85;;;26.00;99.90;;;;;;5096053;28;20164;-65
2023/06/15 04:52:51;;;;;;;5.43;4.88;;;26.00;99.90;;;;;;5095592;28;20299;-66
2023/06/15 04:55:16;;;;;;;11.20;5.25;;;25.90;99.90;;;;;;5095827;28;20164;-65
2023/06/15 04:57:42;;;;;;;8.00;5.82;;;26.80;99.90;;;;;;5095009;28;20527;-65
2023/06/15 05:00:10;;;;;;;12.75;5.30;;;26.90;99.90;;;;;;5094824;28;20529;-65
2023/06/15 05:02:35;;;;;;;6.40;5.15;;;27.00;99.90;;;;;;5095758;28;20564;-65
2023/06/15 05:05:02;;;;;;;10.95;4.82;;;27.30;99.90;;;;;;5095579;28;20188;-65
2023/06/15 05:07:28;;;;;;;7.22;4.90;;;27.60;99.90;;;;;;5095526;28;20523;-65
2023/06/15 05:09:53;;;;;;;6.05;4.78;;;27.20;99.90;;;;;;5095696;28;20164;-65
2023/06/15 05:12:19;;;;;;;8.90;4.88;;;27.00;99.90;;;;;;5095040;28;20227;-64
2023/06/15 05:14:45;;;;;;;4.90;4.20;;;26.70;99.90;;;;;;5094795;28;20221;-65
2023/06/15 05:17:11;;;;;;;7.45;4.60;;;27.00;99.90;;;;;;5095426;28;20208;-65
2023/06/15 05:19:37;;;;;;;10.35;4.63;;;28.40;99.90;;;;;;5094911;28;20171;-65
2023/06/15 05:22:03;;;;;;;4.97;4.40;;;29.10;99.90;;;;;;5095295;28;20216;-67
2023/06/15 05:24:29;;;;;;;7.82;4.30;;;29.50;88.10;;;;;;5095197;28;20274;-66
2023/06/15 05:26:56;;;;;;;5.68;4.45;;;29.70;51.20;;;;;;5094287;28;20723;-66
2023/06/15 05:29:22;;;;;;;4.50;4.10;;;29.90;29.80;;;;;;5094826;28;20160;-67
2023/06/15 05:31:48;;;;;;;4.95;4.40;;;29.10;30.70;;;;;;5094516;28;20336;-66
2023/06/15 05:34:13;;;;;;;7.80;4.93;;;28.80;37.20;;;;;;5094385;28;20204;-67
2023/06/15 05:36:39;;;;;;;5.50;4.47;;;28.80;43.80;;;;;;5095161;28;20586;-67
2023/06/15 05:39:06;;;;;;;6.00;4.10;;;28.70;44.20;;;;;;5093757;28;20264;-67
2023/06/15 05:41:32;;;;;;;7.93;4.40;;;28.20;46.60;;;;;;5094170;28;20681;-68
2023/06/15 05:43:59;;;;;;;8.95;4.72;;;28.00;58.00;;;;;;5094792;28;20172;-67
2023/06/15 05:46:25;;;;;;;6.47;4.10;;;28.10;57.20;;;;;;5093359;28;20179;-68
2023/06/15 05:48:50;;;;;;;8.50;4.10;;;28.00;56.30;;;;;;5093847;28;20694;-66
2023/06/15 05:51:16;;;;;;;6.32;4.90;;;28.10;57.50;;;;;;5093461;28;20164;-67
2023/06/15 05:53:42;;;;;;;6.72;4.22;;;28.80;51.50;;;;;;5093716;28;20214;-67
2023/06/15 05:56:08;;;;;;;5.50;4.28;;;29.00;36.90;;;;;;5092797;28;20173;-68
2023/06/15 05:58:34;;;;;;;6.55;4.47;;;28.90;26.60;;;;;;5093163;28;20186;-68
2023/06/15 06:01:00;;;;;;;4.35;4.00;;;28.60;36.50;;;;;;5093300;28;20175;-67
2023/06/15 06:03:26;;;;;;;7.95;4.18;;;29.40;27.00;;;;;;5093448;28;20168;-67
2023/06/15 06:05:52;;;;;;;4.40;4.00;;;29.80;11.70;;;;;;5092286;28;20619;-67
2023/06/15 06:08:18;;;;;;;5.55;3.70;;;30.20;1.00;;;;;;5093818;28;20640;-67
2023/06/15 06:10:44;;;;;;;7.80;4.57;;;28.40;11.40;;;;;;5093745;28;20168;-67
2023/06/15 06:13:10;;;;;;;4.30;3.92;;;28.50;20.70;;;;;;5093436;28;20647;-68
2023/06/15 06:15:36;;;;;;;7.13;4.25;;;29.70;18.00;;;;;;5094337;28;20179;-67
2023/06/15 06:18:02;;;;;;;5.93;3.90;;;30.70;1.00;;;;;;5094001;28;20176;-66
2023/06/15 06:20:28;;;;;;;6.32;3.83;;;31.50;1.00;;;;;;5094278;28;20160;-69
2023/06/15 06:22:53;;;;;;;7.82;3.78;;;31.80;1.00;;;;;;5093294;28;20522;-68
2023/06/15 06:25:19;;;;;;;6.38;3.75;;;31.90;1.00;;;;;;5074959;28;20197;-68
2023/06/15 06:27:44;;;;;;;3.50;3.20;;;32.40;1.00;;;;;;5093834;28;20171;-68
2023/06/15 06:30:10;;;;;;;3.58;3.38;;;31.90;1.00;;;;;;5080792;28;20226;-68
2023/06/15 06:32:36;;;;;;;5.40;3.30;;;31.80;1.00;;;;;;5073215;28;20295;-69
2023/06/15 06:35:03;;;;;;;3.55;3.25;;;32.10;1.00;;;;;;5073596;28;20252;-69
2023/06/15 06:37:28;;;;;;;3.78;3.10;;;32.60;1.00;;;;;;5073494;28;20216;-68
2023/06/15 06:39:54;;;;;;;3.03;2.88;;;32.80;1.00;;;;;;5072808;28;20246;-67
2023/06/15 06:42:20;;;;;;;3.60;2.92;;;32.10;1.00;;;;;;5073364;28;20256;-68
2023/06/15 06:44:45;;;;;;;4.82;3.35;;;31.30;1.00;;;;;;5073323;28;20168;-69
2023/06/15 06:47:11;;;;;;;5.03;3.10;;;32.40;1.00;;;;;;5072974;28;20173;-68
2023/06/15 06:49:37;;;;;;;4.85;3.47;;;32.30;1.00;;;;;;5072631;28;20196;-69
2023/06/15 06:52:03;;;;;;;5.13;3.10;;;32.40;1.00;;;;;;5072477;28;20168;-68
2023/06/15 06:54:29;;;;;;;3.55;3.00;;;31.40;1.00;;;;;;5055128;28;21029;-69
2023/06/15 06:56:54;;;;;;;3.70;3.22;;;30.30;1.00;;;;;;5072948;28;20187;-67
2023/06/15 06:59:20;;;;;;;4.32;3.33;;;30.30;1.00;;;;;;5073334;28;20246;-68
2023/06/15 07:01:47;;;;;;;4.88;2.78;;;30.00;1.00;;;;;;5071626;28;20165;-68
2023/06/15 07:04:12;;;;;;;5.65;3.53;;;30.00;1.00;;;;;;5072565;28;20169;-68
2023/06/15 07:06:38;;;;;;;6.53;3.35;;;31.30;1.00;;;;;;5051112;28;20168;-69
2023/06/15 07:09:03;;;;;;;5.28;3.53;;;32.60;1.00;;;;;;5065909;28;20192;-69
2023/06/15 07:11:29;;;;;;;6.50;3.28;;;32.30;1.00;;;;;;5070904;28;20269;-70
2023/06/15 07:13:55;;;;;;;5.47;3.53;;;32.60;1.00;;;;;;5070505;28;20204;-67
2023/06/15 07:16:20;;;;;;;4.25;3.80;;;32.10;1.00;;;;;;5072846;28;20175;-68
2023/06/15 07:18:46;;;;;;;6.90;3.55;;;33.10;1.00;;;;;;5072325;28;20263;-68
2023/06/15 07:21:11;;;;;;;6.85;3.78;;;34.30;1.00;;;;;;5072218;28;20635;-68
2023/06/15 07:23:37;;;;;;;5.28;3.55;;;34.80;1.00;;;;;;5072452;28;20262;-68
2023/06/15 07:26:03;;;;;;;4.00;3.35;;;33.60;1.00;;;;;;5071077;28;20702;-68
2023/06/15 07:28:28;;;;;;;6.93;3.65;;;33.20;1.00;;;;;;5071913;28;20665;-68
2023/06/15 07:30:54;;;;;;;4.05;3.20;;;33.70;1.00;;;;;;5072562;28;20173;-69
2023/06/15 07:33:20;;;;;;;4.50;3.20;;;33.80;1.00;;;;;;5071615;28;20247;-70
2023/06/15 07:35:46;;;;;;;5.35;3.20;;;32.40;1.00;;;;;;5071931;28;20291;-68
2023/06/15 07:38:14;;;;;;;4.43;3.30;;;32.70;1.00;;;;;;5069048;28;20275;-67
2023/06/15 07:40:40;;;;;;;10.60;3.47;;;33.10;1.00;;;;;;5067705;28;20682;-67
2023/06/15 07:43:06;;;;;;;5.25;3.47;;;33.70;1.00;;;;;;5072012;28;20180;-67
2023/06/15 07:45:31;;;;;;;3.40;3.10;;;33.90;1.00;;;;;;5071330;28;20616;-66
2023/06/15 07:47:57;;;;;;;6.75;3.35;;;33.20;1.00;;;;;;5060582;28;20183;-66
2023/06/15 07:50:22;;;;;;;9.40;3.42;;;30.90;1.00;;;;;;5053334;28;20169;-67
2023/06/15 07:52:50;;;;;;;3.85;3.55;;;29.80;1.00;;;;;;5070945;28;20284;-67
2023/06/15 07:55:16;;;;;;;3.28;3.00;;;30.50;1.00;;;;;;5071606;28;20677;-67
2023/06/15 07:57:41;;;;;;;7.53;3.65;;;30.30;1.00;;;;;;5071581;28;20207;-66
2023/06/15 08:00:08;;;;;;;4.70;3.15;;;31.70;1.00;;;;;;5071455;28;20247;-68
2023/06/15 08:02:34;;;;;;;3.53;3.22;;;31.70;1.00;;;;;;5072192;28;20184;-68
2023/06/15 08:05:00;;;;;;;5.03;3.47;;;32.10;1.00;;;;;;5068557;28;20176;-70
2023/06/15 08:07:25;;;;;;;5.65;3.35;;;31.90;1.00;;;;;;5069561;28;20164;-67
2023/06/15 08:09:51;;;;;;;3.15;2.85;;;32.10;1.00;;;;;;5070993;28;20173;-66
2023/06/15 08:12:17;;;;;;;3.47;2.90;;;31.60;1.00;;;;;;5071468;28;20200;-66
2023/06/15 08:14:43;;;;;;;4.15;3.10;;;32.20;1.00;;;;;;5071218;28;20176;-67
2023/06/15 08:17:09;;;;;;;4.43;3.10;;;32.00;1.00;;;;;;5071945;28;20504;-66
2023/06/15 08:19:34;;;;;;;5.05;3.38;;;31.00;1.00;;;;;;5053110;28;20218;-66
2023/06/15 08:22:00;;;;;;;3.35;2.90;;;31.70;1.00;;;;;;5070482;28;20207;-66
2023/06/15 08:24:26;;;;;;;3.03;2.70;;;32.40;1.00;;;;;;5071476;28;20263;-66
2023/06/15 08:26:52;;;;;;;4.70;3.40;;;30.40;1.00;;;;;;5071838;28;20203;-65
2023/06/15 08:29:18;;;;;;;4.53;3.17;;;29.80;1.00;;;;;;5071714;28;20584;-67
2023/06/15 08:31:44;;;;;;;3.30;3.00;;;29.00;1.00;;;;;;5071363;28;20172;-67
2023/06/15 08:34:10;;;;;;;4.53;3.42;;;28.90;1.00;;;;;;5070729;28;20671;-67
2023/06/15 08:36:37;;;;;;;4.03;3.60;;;28.60;1.00;;;;;;5069996;28;20228;-67
2023/06/15 08:39:03;;;;;;;3.20;2.90;;;29.40;1.00;;;;;;5071312;28;20532;-66
2023/06/15 08:41:30;;;;;;;3.67;3.20;;;29.70;1.00;;;;;;5071498;28;20197;-66
2023/06/15 08:43:56;;;;;;;3.33;3.13;;;30.20;1.00;;;;;;5071036;28;20172;-65
2023/06/15 08:46:24;;;;;;;3.20;3.00;;;29.40;1.00;;;;;;5071141;28;20171;-66
2023/06/15 08:48:52;;;;;;;3.33;3.00;;;28.80;1.00;;;;;;5071465;28;20639;-66
2023/06/15 08:51:21;;;;;;;4.95;3.38;;;28.50;1.00;;;;;;5058644;28;20200;-67
2023/06/15 08:53:47;;;;;;;3.05;2.85;;;30.00;1.00;;;;;;5052588;28;20606;-67
2023/06/15 08:56:13;;;;;;;3.78;3.30;;;29.90;1.00;;;;;;5071242;28;20169;-67
2023/06/15 08:58:39;;;;;;;8.00;2.92;;;30.80;1.00;;;;;;5070888;28;20176;-66
2023/06/15 09:01:06;;;;;;;5.70;3.15;;;30.80;1.00;;;;;;5071011;28;20223;-66
2023/06/15 09:03:34;;;;;;;6.32;3.08;;;30.70;1.00;;;;;;5070177;28;20176;-66
2023/06/15 09:06:00;;;;;;;5.57;4.20;;;31.10;1.00;;;;;;5070131;28;20172;-67
2023/06/15 09:08:25;;;;;;;4.68;3.35;;;31.50;1.00;;;;;;5070632;28;20176;-65
2023/06/15 09:11:08;;;;;;;3.38;3.08;;;30.20;1.00;;;;;;5071100;28;20191;-64
2023/06/15 09:13:34;;;;;;;4.35;3.35;;;30.30;1.00;;;;;;5071243;28;20206;-65
2023/06/15 09:16:01;;;;;;;5.53;3.03;;;30.60;1.00;;;;;;5071183;28;20173;-66
2023/06/15 09:18:27;;;;;;;3.40;3.10;;;31.00;1.00;;;;;;5071102;28;20635;-66
2023/06/15 09:20:59;;;;;;;4.88;3.30;;;32.30;1.00;;;;;;5074197;28;20184;-66
2023/06/15 09:23:24;;;;;;;4.50;3.33;;;32.60;1.00;;;;;;5074519;28;20180;-66
2023/06/15 09:25:52;;;;;;;2.95;2.75;;;30.90;1.00;;;;;;5074703;28;20390;-67
2023/06/15 09:28:22;;;;;;;4.70;3.10;;;30.10;1.00;;;;;;5074182;28;20180;-66
2023/06/15 09:30:53;;;;;;;3.60;3.35;;;30.30;1.00;;;;;;5073828;28;20172;-65
2023/06/15 09:33:20;;;;;;;3.72;2.80;;;30.00;1.00;;;;;;5074169;28;20211;-66
2023/06/15 09:35:59;;;;;;;4.07;3.13;;;29.80;1.00;;;;;;5074326;28;20208;-67
2023/06/15 09:38:30;;;;;;;6.10;2.80;;;29.90;1.00;;;;;;5074398;28;20191;-67
2023/06/15 09:40:56;;;;;;;2.95;2.70;;;29.90;1.00;;;;;;5058670;28;20172;-66
2023/06/15 09:43:22;;;;;;;5.90;2.90;;;29.60;1.00;;;;;;5074303;28;20184;-66
2023/06/15 09:45:54;;;;;;;3.17;2.80;;;29.70;1.00;;;;;;5073544;28;20527;-66
2023/06/15 09:48:21;;;;;;;4.75;2.92;;;29.30;1.00;;;;;;5073233;28;20179;-66
2023/06/15 09:50:53;;;;;;;3.00;2.80;;;29.00;1.00;;;;;;5072692;28;20188;-65
2023/06/15 09:53:19;;;;;;;4.53;2.80;;;28.80;1.00;;;;;;5073243;28;20587;-67
2023/06/15 09:55:46;;;;;;;4.78;2.63;;;29.10;1.00;;;;;;5074106;28;20199;-66
2023/06/15 09:58:12;;;;;;;3.05;2.78;;;29.70;1.00;;;;;;5073509;28;20212;-65
2023/06/15 10:00:38;;;;;;;5.70;4.50;;;29.90;1.00;;;;;;5073029;28;20580;-67
2023/06/15 10:03:06;;;;;;;3.63;3.28;;;29.50;1.00;;;;;;5071749;28;20180;-66
2023/06/15 10:05:34;;;;;;;3.30;3.10;;;28.60;1.00;;;;;;5072906;28;20259;-67
2023/06/15 10:08:04;;;;;;;4.65;4.18;;;29.10;1.00;;;;;;5073779;28;20173;-67
2023/06/15 10:10:32;;;;;;;3.28;3.05;;;29.30;1.00;;;;;;5073410;28;20199;-67
2023/06/15 10:13:00;;;;;;;3.00;2.80;;;29.90;1.00;;;;;;5073685;28;20215;-66
2023/06/15 10:15:28;;;;;;;3.95;3.13;;;29.30;1.00;;;;;;5074451;28;20179;-66
2023/06/15 10:17:56;;;;;;;5.35;4.95;;;29.10;1.00;;;;;;5073501;28;20184;-64
2023/06/15 10:20:27;;;;;;;6.32;5.53;;;29.30;1.00;;;;;;5071438;28;20194;-65
2023/06/15 10:23:04;;;;;;;4.55;4.18;;;29.70;1.00;;;;;;5066043;28;20191;-66
2023/06/15 10:25:31;;;;;;;3.92;3.63;;;30.60;1.00;;;;;;5073480;28;20176;-66
2023/06/15 10:27:59;;;;;;;3.30;2.70;;;30.80;1.00;;;;;;5063841;28;20234;-65
2023/06/15 10:30:40;;;;;;;3.60;2.60;;;30.80;1.00;;;;;;5072206;28;20164;-67
2023/06/15 10:33:19;;;;;;;4.47;3.05;;;30.30;1.00;;;;;;5073417;28;20291;-66
2023/06/15 10:35:53;;;;;;;2.70;2.55;;;30.70;1.00;;;;;;5073034;28;20201;-68
2023/06/15 10:38:24;;;;;;;3.60;2.88;;;30.50;1.00;;;;;;5073767;28;20172;-67
2023/06/15 10:40:51;;;;;;;2.85;2.65;;;29.80;1.00;;;;;;5072878;28;20169;-66
2023/06/15 10:43:18;;;;;;;9.50;2.80;;;29.50;1.00;;;;;;5071839;28;20168;-65
2023/06/15 10:45:44;;;;;;;4.38;3.30;;;29.60;1.00;;;;;;5072340;28;20172;-64
2023/06/15 10:48:24;;;;;;;3.45;2.60;;;28.90;1.00;;;;;;5072161;28;20640;-65
2023/06/15 10:50:51;;;;;;;5.05;3.03;;;29.30;1.00;;;;;;5070907;28;20164;-66
2023/06/15 10:53:25;;;;;;;6.15;3.10;;;29.10;1.00;;;;;;5072756;28;20203;-65
2023/06/15 10:55:58;;;;;;;3.00;2.80;;;29.20;1.00;;;;;;5072027;28;20172;-64
2023/06/15 10:58:26;;;;;;;3.03;2.78;;;29.50;1.00;;;;;;5071839;28;20527;-66
2023/06/15 11:01:15;;;;;;;3.13;2.90;;;29.80;1.00;;;;;;5071729;28;20184;-66
2023/06/15 11:03:41;;;;;;;3.80;3.50;;;29.50;1.00;;;;;;5072071;28;20251;-66
2023/06/15 11:06:15;;;;;;;3.65;3.30;;;29.00;1.00;;;;;;5072624;28;20692;-65
2023/06/15 11:08:48;;;;;;;5.18;2.90;;;28.90;1.00;;;;;;5071044;28;20513;-66
2023/06/15 11:11:18;;;;;;;6.07;3.17;;;29.50;1.00;;;;;;5071928;28;20271;-66
2023/06/15 11:14:00;;;;;;;3.58;3.15;;;29.90;1.00;;;;;;5071992;28;20201;-65
2023/06/15 11:16:36;;;;;;;6.47;3.05;;;30.10;1.00;;;;;;5072342;28;20211;-68
2023/06/15 11:19:14;;;;;;;3.97;2.95;;;30.20;1.00;;;;;;5062202;28;20172;-64
2023/06/15 11:22:11;;;;;;;4.20;3.05;;;28.90;1.00;;;;;;5071607;28;20650;-65
2023/06/15 11:24:38;;;;;;;5.35;3.28;;;28.70;1.00;;;;;;4954340;28;20189;-65
2023/06/15 11:27:06;;;;;;;12.95;3.42;;;28.00;1.00;;;;;;4966958;28;20176;-64
2023/06/15 11:29:36;;;;;;;4.03;3.25;;;28.00;1.00;;;;;;4957333;28;20279;-64
2023/06/15 11:32:04;;;;;;;4.45;3.08;;;28.00;1.00;;;;;;4958367;28;20244;-65
2023/06/15 11:34:33;;;;;;;4.43;3.55;;;28.60;1.00;;;;;;4950430;28;20220;-66
2023/06/15 11:36:59;;;;;;;5.05;3.08;;;28.70;1.00;;;;;;4967281;28;20289;-65
2023/06/15 11:39:27;;;;;;;3.72;3.22;;;28.00;1.00;;;;;;4957533;28;20196;-65
2023/06/15 11:41:53;;;;;;;5.65;3.45;;;27.80;1.00;;;;;;4950368;28;20295;-66
2023/06/15 11:44:21;;;;;;;3.63;2.83;;;27.90;1.00;;;;;;4969902;28;20183;-66
2023/06/15 11:46:56;;;;;;;5.50;3.30;;;28.30;1.00;;;;;;4971521;28;20263;-64
2023/06/15 11:49:26;;;;;;;6.03;3.20;;;28.80;1.00;;;;;;4963672;28;20235;-65
2023/06/15 11:51:53;;;;;;;6.22;3.42;;;28.70;1.00;;;;;;4965810;28;20178;-66
2023/06/15 11:54:25;;;;;;;3.58;3.10;;;28.90;1.00;;;;;;4956212;28;20230;-65
2023/06/15 11:56:51;;;;;;;7.32;4.35;;;29.30;1.00;;;;;;4968779;28;20172;-65
2023/06/15 11:59:19;;;;;;;5.88;4.15;;;29.70;1.00;;;;;;4961787;28;20247;-65
2023/06/15 12:01:45;;;;;;;3.42;3.13;;;29.50;1.00;;;;;;5009262;28;20196;-65
2023/06/15 12:04:12;;;;;;;3.72;3.53;;;28.90;1.00;;;;;;5030684;28;20689;-64
2023/06/15 12:06:40;;;;;;;3.60;3.30;;;28.50;1.00;;;;;;5029998;28;20174;-65
2023/06/15 12:09:07;;;;;;;3.35;3.10;;;28.20;1.00;;;;;;5031242;28;20237;-65
2023/06/15 12:11:33;;;;;;;5.03;3.42;;;28.00;1.00;;;;;;5030598;28;20257;-65
2023/06/15 12:14:05;;;;;;;5.28;3.55;;;28.00;1.00;;;;;;5030612;28;20755;-65
2023/06/15 12:16:30;;;;;;;4.60;3.22;;;28.20;1.00;;;;;;5031891;28;20333;-64
2023/06/15 12:19:00;;;;;;;3.70;3.40;;;28.00;1.00;;;;;;5031319;28;20271;-64
2023/06/15 12:21:51;;;;;;;3.75;3.00;;;28.00;1.00;;;;;;5031531;28;20213;-65
2023/06/15 12:24:18;;;;;;;8.98;3.40;;;28.20;1.00;;;;;;5029153;28;20185;-65
2023/06/15 12:26:57;;;;;;;5.13;2.90;;;28.70;1.00;;;;;;5031084;28;20224;-65
2023/06/15 12:29:24;;;;;;;3.95;3.15;;;29.20;1.00;;;;;;5031387;28;20170;-65
2023/06/15 12:31:53;;;;;;;3.42;3.05;;;29.20;1.00;;;;;;5031504;28;20214;-65
2023/06/15 12:34:24;;;;;;;3.90;3.25;;;28.10;1.00;;;;;;5030503;28;20239;-64
2023/06/15 12:36:51;;;;;;;7.40;4.50;;;27.80;1.00;;;;;;5056065;28;20295;-65
2023/06/15 12:39:18;;;;;;;5.30;4.88;;;27.70;1.00;;;;;;5053466;28;20236;-65
2023/06/15 12:41:44;;;;;;;4.85;3.53;;;27.60;1.00;;;;;;5071129;28;20160;-64
2023/06/15 12:44:11;;;;;;;11.40;3.88;;;27.20;1.00;;;;;;5071262;28;20177;-64
2023/06/15 12:46:38;;;;;;;3.25;3.05;;;27.40;1.00;;;;;;5071135;28;20691;-64
2023/06/15 12:49:04;;;;;;;4.03;3.50;;;27.30;1.00;;;;;;5071081;28;20168;-65
2023/06/15 12:51:30;;;;;;;6.15;3.20;;;27.70;1.00;;;;;;5071152;28;20171;-65
2023/06/15 12:53:57;;;;;;;4.38;3.92;;;27.90;1.00;;;;;;5071397;28;20208;-65